sensor_id;sensor_type;location;lat;lon;timestamp;P1;durP1;ratioP1;P2;durP2;ratioP2
24713;SDS011;12820;51.580;5.010;2023-04-24T00:01:54;40.38;;;24.05;;
24713;SDS011;12820;51.580;5.010;2023-04-24T00:06:57;32.88;;;21.77;;
24713;SDS011;12820;51.580;5.010;2023-04-24T00:12:02;33.80;;;22.67;;
24713;SDS011;12820;51.580;5.010;2023-04-24T00:17:06;30.73;;;21.75;;
24713;SDS011;12820;51.580;5.010;2023-04-24T00:22:08;28.02;;;20.88;;
24713;SDS011;12820;51.580;5.010;2023-04-24T00:27:10;32.47;;;21.77;;
24713;SDS011;12820;51.580;5.010;2023-04-24T00:32:12;32.83;;;21.95;;
24713;SDS011;12820;51.580;5.010;2023-04-24T00:37:15;40.88;;;24.58;;
24713;SDS011;12820;51.580;5.010;2023-04-24T00:42:19;34.72;;;23.73;;
24713;SDS011;12820;51.580;5.010;2023-04-24T00:47:21;40.85;;;26.77;;
24713;SDS011;12820;51.580;5.010;2023-04-24T00:52:23;40.63;;;28.58;;
24713;SDS011;12820;51.580;5.010;2023-04-24T00:57:26;46.53;;;30.75;;
24713;SDS011;12820;51.580;5.010;2023-04-24T01:02:28;43.25;;;29.35;;
24713;SDS011;12820;51.580;5.010;2023-04-24T01:07:31;44.22;;;30.02;;
24713;SDS011;12820;51.580;5.010;2023-04-24T01:12:35;42.22;;;29.50;;
24713;SDS011;12820;51.580;5.010;2023-04-24T01:17:37;48.03;;;30.58;;
24713;SDS011;12820;51.580;5.010;2023-04-24T01:22:40;47.00;;;29.63;;
24713;SDS011;12820;51.580;5.010;2023-04-24T01:27:43;49.72;;;32.33;;
24713;SDS011;12820;51.580;5.010;2023-04-24T01:32:46;48.03;;;31.58;;
24713;SDS011;12820;51.580;5.010;2023-04-24T01:37:48;52.95;;;33.10;;
24713;SDS011;12820;51.580;5.010;2023-04-24T01:42:51;45.45;;;29.95;;
24713;SDS011;12820;51.580;5.010;2023-04-24T01:47:53;46.45;;;28.40;;
24713;SDS011;12820;51.580;5.010;2023-04-24T01:52:55;41.47;;;28.00;;
24713;SDS011;12820;51.580;5.010;2023-04-24T01:57:57;43.78;;;26.23;;
24713;SDS011;12820;51.580;5.010;2023-04-24T02:03:01;38.85;;;23.15;;
24713;SDS011;12820;51.580;5.010;2023-04-24T02:08:04;38.38;;;21.83;;
24713;SDS011;12820;51.580;5.010;2023-04-24T02:13:06;35.63;;;23.17;;
24713;SDS011;12820;51.580;5.010;2023-04-24T02:18:08;37.78;;;23.70;;
24713;SDS011;12820;51.580;5.010;2023-04-24T02:23:10;40.38;;;24.70;;
24713;SDS011;12820;51.580;5.010;2023-04-24T02:28:13;44.65;;;26.55;;
24713;SDS011;12820;51.580;5.010;2023-04-24T02:33:15;38.38;;;24.33;;
24713;SDS011;12820;51.580;5.010;2023-04-24T02:38:17;47.92;;;24.80;;
24713;SDS011;12820;51.580;5.010;2023-04-24T02:43:19;39.58;;;24.20;;
24713;SDS011;12820;51.580;5.010;2023-04-24T02:48:22;38.33;;;22.35;;
24713;SDS011;12820;51.580;5.010;2023-04-24T02:53:24;35.15;;;21.48;;
24713;SDS011;12820;51.580;5.010;2023-04-24T02:58:26;37.50;;;22.63;;
24713;SDS011;12820;51.580;5.010;2023-04-24T03:03:28;36.58;;;22.52;;
24713;SDS011;12820;51.580;5.010;2023-04-24T03:08:33;36.58;;;23.13;;
24713;SDS011;12820;51.580;5.010;2023-04-24T03:13:36;37.83;;;23.17;;
24713;SDS011;12820;51.580;5.010;2023-04-24T03:18:38;36.45;;;23.02;;
24713;SDS011;12820;51.580;5.010;2023-04-24T03:23:41;34.15;;;21.42;;
24713;SDS011;12820;51.580;5.010;2023-04-24T03:28:44;41.08;;;22.60;;
24713;SDS011;12820;51.580;5.010;2023-04-24T03:33:46;36.25;;;22.67;;
24713;SDS011;12820;51.580;5.010;2023-04-24T03:38:48;33.53;;;22.27;;
24713;SDS011;12820;51.580;5.010;2023-04-24T03:44:00;37.53;;;23.10;;
24713;SDS011;12820;51.580;5.010;2023-04-24T03:49:03;34.38;;;21.23;;
24713;SDS011;12820;51.580;5.010;2023-04-24T03:54:09;36.58;;;21.98;;
24713;SDS011;12820;51.580;5.010;2023-04-24T03:59:14;32.17;;;20.00;;
24713;SDS011;12820;51.580;5.010;2023-04-24T04:04:20;32.17;;;18.92;;
24713;SDS011;12820;51.580;5.010;2023-04-24T04:09:23;28.77;;;17.80;;
24713;SDS011;12820;51.580;5.010;2023-04-24T04:14:25;23.50;;;14.50;;
24713;SDS011;12820;51.580;5.010;2023-04-24T04:19:27;24.35;;;13.10;;
24713;SDS011;12820;51.580;5.010;2023-04-24T04:24:30;13.18;;;6.93;;
24713;SDS011;12820;51.580;5.010;2023-04-24T04:29:33;10.57;;;5.70;;
24713;SDS011;12820;51.580;5.010;2023-04-24T04:34:39;10.98;;;4.53;;
24713;SDS011;12820;51.580;5.010;2023-04-24T04:39:45;7.60;;;2.80;;
24713;SDS011;12820;51.580;5.010;2023-04-24T04:44:53;3.03;;;1.42;;
24713;SDS011;12820;51.580;5.010;2023-04-24T04:50:03;3.40;;;1.85;;
24713;SDS011;12820;51.580;5.010;2023-04-24T04:55:07;6.93;;;2.83;;
24713;SDS011;12820;51.580;5.010;2023-04-24T05:00:32;10.23;;;3.88;;
24713;SDS011;12820;51.580;5.010;2023-04-24T05:05:45;6.45;;;2.88;;
24713;SDS011;12820;51.580;5.010;2023-04-24T05:10:49;7.30;;;2.95;;
24713;SDS011;12820;51.580;5.010;2023-04-24T05:15:52;9.98;;;3.67;;
24713;SDS011;12820;51.580;5.010;2023-04-24T05:20:54;10.85;;;4.40;;
24713;SDS011;12820;51.580;5.010;2023-04-24T05:25:59;11.55;;;4.28;;
24713;SDS011;12820;51.580;5.010;2023-04-24T05:31:01;11.98;;;5.35;;
24713;SDS011;12820;51.580;5.010;2023-04-24T05:36:05;13.88;;;6.35;;
24713;SDS011;12820;51.580;5.010;2023-04-24T05:41:08;9.68;;;4.15;;
24713;SDS011;12820;51.580;5.010;2023-04-24T05:46:11;11.35;;;6.88;;
24713;SDS011;12820;51.580;5.010;2023-04-24T05:51:13;14.38;;;6.57;;
24713;SDS011;12820;51.580;5.010;2023-04-24T05:56:15;13.32;;;8.05;;
24713;SDS011;12820;51.580;5.010;2023-04-24T06:01:18;15.80;;;7.57;;
24713;SDS011;12820;51.580;5.010;2023-04-24T06:06:28;19.67;;;10.02;;
24713;SDS011;12820;51.580;5.010;2023-04-24T06:11:30;11.60;;;7.00;;
24713;SDS011;12820;51.580;5.010;2023-04-24T06:16:34;15.88;;;9.30;;
24713;SDS011;12820;51.580;5.010;2023-04-24T06:21:43;15.70;;;8.65;;
24713;SDS011;12820;51.580;5.010;2023-04-24T06:26:46;26.98;;;12.85;;
24713;SDS011;12820;51.580;5.010;2023-04-24T06:31:48;25.13;;;9.63;;
24713;SDS011;12820;51.580;5.010;2023-04-24T06:36:50;29.90;;;12.25;;
24713;SDS011;12820;51.580;5.010;2023-04-24T06:41:53;20.75;;;11.60;;
24713;SDS011;12820;51.580;5.010;2023-04-24T06:46:55;24.45;;;12.95;;
24713;SDS011;12820;51.580;5.010;2023-04-24T06:51:57;21.73;;;11.93;;
24713;SDS011;12820;51.580;5.010;2023-04-24T06:56:59;25.85;;;13.35;;
24713;SDS011;12820;51.580;5.010;2023-04-24T07:02:05;29.45;;;11.95;;
24713;SDS011;12820;51.580;5.010;2023-04-24T07:07:08;22.80;;;9.20;;
24713;SDS011;12820;51.580;5.010;2023-04-24T07:12:11;22.05;;;8.90;;
24713;SDS011;12820;51.580;5.010;2023-04-24T07:17:14;21.15;;;7.68;;
24713;SDS011;12820;51.580;5.010;2023-04-24T07:22:17;21.15;;;7.32;;
24713;SDS011;12820;51.580;5.010;2023-04-24T07:27:19;21.23;;;8.55;;
24713;SDS011;12820;51.580;5.010;2023-04-24T07:32:21;30.38;;;9.93;;
24713;SDS011;12820;51.580;5.010;2023-04-24T07:37:23;24.30;;;8.60;;
24713;SDS011;12820;51.580;5.010;2023-04-24T07:42:26;22.42;;;8.35;;
24713;SDS011;12820;51.580;5.010;2023-04-24T07:47:30;21.63;;;7.50;;
24713;SDS011;12820;51.580;5.010;2023-04-24T07:52:32;33.03;;;9.15;;
24713;SDS011;12820;51.580;5.010;2023-04-24T07:57:34;23.80;;;8.23;;
24713;SDS011;12820;51.580;5.010;2023-04-24T08:02:37;24.30;;;7.68;;
24713;SDS011;12820;51.580;5.010;2023-04-24T08:07:39;23.15;;;6.30;;
24713;SDS011;12820;51.580;5.010;2023-04-24T08:12:44;24.98;;;6.07;;
24713;SDS011;12820;51.580;5.010;2023-04-24T08:17:46;12.15;;;4.78;;
24713;SDS011;12820;51.580;5.010;2023-04-24T08:22:48;23.73;;;5.80;;
24713;SDS011;12820;51.580;5.010;2023-04-24T08:27:50;20.95;;;5.07;;
24713;SDS011;12820;51.580;5.010;2023-04-24T08:32:53;23.25;;;5.10;;
24713;SDS011;12820;51.580;5.010;2023-04-24T08:37:55;22.23;;;4.43;;
24713;SDS011;12820;51.580;5.010;2023-04-24T08:42:57;25.42;;;4.88;;
24713;SDS011;12820;51.580;5.010;2023-04-24T08:48:01;23.00;;;4.28;;
24713;SDS011;12820;51.580;5.010;2023-04-24T08:53:04;16.80;;;3.80;;
24713;SDS011;12820;51.580;5.010;2023-04-24T08:58:06;21.00;;;4.00;;
24713;SDS011;12820;51.580;5.010;2023-04-24T09:03:09;29.17;;;12.40;;
24713;SDS011;12820;51.580;5.010;2023-04-24T09:08:12;17.77;;;3.35;;
24713;SDS011;12820;51.580;5.010;2023-04-24T09:13:15;17.08;;;3.40;;
24713;SDS011;12820;51.580;5.010;2023-04-24T09:18:18;10.98;;;2.67;;
24713;SDS011;12820;51.580;5.010;2023-04-24T09:23:20;16.52;;;2.80;;
24713;SDS011;12820;51.580;5.010;2023-04-24T09:28:29;17.33;;;3.17;;
24713;SDS011;12820;51.580;5.010;2023-04-24T09:33:37;11.68;;;2.70;;
24713;SDS011;12820;51.580;5.010;2023-04-24T09:38:39;16.67;;;2.87;;
24713;SDS011;12820;51.580;5.010;2023-04-24T09:43:41;10.68;;;2.60;;
24713;SDS011;12820;51.580;5.010;2023-04-24T09:48:43;10.63;;;2.40;;
24713;SDS011;12820;51.580;5.010;2023-04-24T09:53:46;10.73;;;2.15;;
24713;SDS011;12820;51.580;5.010;2023-04-24T09:58:55;6.63;;;1.60;;
24713;SDS011;12820;51.580;5.010;2023-04-24T10:04:06;6.53;;;1.42;;
24713;SDS011;12820;51.580;5.010;2023-04-24T10:09:08;13.07;;;4.35;;
24713;SDS011;12820;51.580;5.010;2023-04-24T10:14:13;10.48;;;2.60;;
24713;SDS011;12820;51.580;5.010;2023-04-24T10:19:17;5.53;;;1.40;;
24713;SDS011;12820;51.580;5.010;2023-04-24T10:24:22;8.73;;;3.95;;
24713;SDS011;12820;51.580;5.010;2023-04-24T10:29:24;8.10;;;2.55;;
24713;SDS011;12820;51.580;5.010;2023-04-24T10:34:27;5.95;;;1.40;;
24713;SDS011;12820;51.580;5.010;2023-04-24T10:39:30;6.80;;;1.42;;
24713;SDS011;12820;51.580;5.010;2023-04-24T10:44:35;4.90;;;1.10;;
24713;SDS011;12820;51.580;5.010;2023-04-24T10:49:38;5.38;;;0.95;;
24713;SDS011;12820;51.580;5.010;2023-04-24T10:54:41;6.05;;;1.30;;
24713;SDS011;12820;51.580;5.010;2023-04-24T10:59:44;6.32;;;1.17;;
24713;SDS011;12820;51.580;5.010;2023-04-24T11:04:47;5.30;;;1.00;;
24713;SDS011;12820;51.580;5.010;2023-04-24T11:09:58;13.30;;;4.00;;
24713;SDS011;12820;51.580;5.010;2023-04-24T11:15:00;6.22;;;1.10;;
24713;SDS011;12820;51.580;5.010;2023-04-24T11:20:04;6.35;;;1.30;;
24713;SDS011;12820;51.580;5.010;2023-04-24T11:25:30;4.95;;;1.30;;
24713;SDS011;12820;51.580;5.010;2023-04-24T11:30:33;5.65;;;1.00;;
24713;SDS011;12820;51.580;5.010;2023-04-24T11:35:39;6.00;;;1.40;;
24713;SDS011;12820;51.580;5.010;2023-04-24T11:40:42;7.75;;;1.08;;
24713;SDS011;12820;51.580;5.010;2023-04-24T11:45:47;6.20;;;1.10;;
24713;SDS011;12820;51.580;5.010;2023-04-24T11:50:50;4.75;;;1.00;;
24713;SDS011;12820;51.580;5.010;2023-04-24T11:55:52;8.70;;;1.45;;
24713;SDS011;12820;51.580;5.010;2023-04-24T12:00:58;10.35;;;1.40;;
24713;SDS011;12820;51.580;5.010;2023-04-24T12:06:04;14.88;;;7.38;;
24713;SDS011;12820;51.580;5.010;2023-04-24T12:11:10;5.47;;;0.98;;
24713;SDS011;12820;51.580;5.010;2023-04-24T12:16:13;7.78;;;0.90;;
24713;SDS011;12820;51.580;5.010;2023-04-24T12:21:17;9.63;;;2.20;;
24713;SDS011;12820;51.580;5.010;2023-04-24T12:26:23;10.15;;;1.30;;
24713;SDS011;12820;51.580;5.010;2023-04-24T12:31:26;4.47;;;1.25;;
24713;SDS011;12820;51.580;5.010;2023-04-24T12:36:31;4.05;;;0.82;;
24713;SDS011;12820;51.580;5.010;2023-04-24T12:41:33;5.03;;;0.80;;
24713;SDS011;12820;51.580;5.010;2023-04-24T12:46:35;3.40;;;0.85;;
24713;SDS011;12820;51.580;5.010;2023-04-24T12:51:37;4.25;;;1.00;;
24713;SDS011;12820;51.580;5.010;2023-04-24T12:56:39;4.05;;;0.80;;
24713;SDS011;12820;51.580;5.010;2023-04-24T13:01:41;4.55;;;1.00;;
24713;SDS011;12820;51.580;5.010;2023-04-24T13:06:43;6.03;;;1.10;;
24713;SDS011;12820;51.580;5.010;2023-04-24T13:11:45;7.82;;;1.20;;
24713;SDS011;12820;51.580;5.010;2023-04-24T13:16:47;5.20;;;0.98;;
24713;SDS011;12820;51.580;5.010;2023-04-24T13:21:50;6.30;;;0.95;;
24713;SDS011;12820;51.580;5.010;2023-04-24T13:26:52;4.53;;;1.10;;
24713;SDS011;12820;51.580;5.010;2023-04-24T13:31:54;5.35;;;1.02;;
24713;SDS011;12820;51.580;5.010;2023-04-24T13:36:57;5.40;;;1.40;;
24713;SDS011;12820;51.580;5.010;2023-04-24T13:42:00;6.20;;;1.10;;
24713;SDS011;12820;51.580;5.010;2023-04-24T13:47:05;8.45;;;1.30;;
24713;SDS011;12820;51.580;5.010;2023-04-24T13:52:07;7.82;;;1.90;;
24713;SDS011;12820;51.580;5.010;2023-04-24T13:57:13;6.47;;;1.75;;
24713;SDS011;12820;51.580;5.010;2023-04-24T14:02:16;8.63;;;1.60;;
24713;SDS011;12820;51.580;5.010;2023-04-24T14:07:18;5.30;;;1.23;;
24713;SDS011;12820;51.580;5.010;2023-04-24T14:12:20;5.70;;;1.70;;
24713;SDS011;12820;51.580;5.010;2023-04-24T14:17:23;5.90;;;1.30;;
24713;SDS011;12820;51.580;5.010;2023-04-24T14:22:25;7.32;;;1.65;;
24713;SDS011;12820;51.580;5.010;2023-04-24T14:27:27;5.10;;;1.05;;
24713;SDS011;12820;51.580;5.010;2023-04-24T14:32:29;6.70;;;1.63;;
24713;SDS011;12820;51.580;5.010;2023-04-24T14:37:31;8.40;;;1.90;;
24713;SDS011;12820;51.580;5.010;2023-04-24T14:42:33;7.53;;;1.70;;
24713;SDS011;12820;51.580;5.010;2023-04-24T14:47:36;6.35;;;1.70;;
24713;SDS011;12820;51.580;5.010;2023-04-24T14:52:39;7.55;;;1.75;;
24713;SDS011;12820;51.580;5.010;2023-04-24T14:57:41;8.93;;;1.95;;
24713;SDS011;12820;51.580;5.010;2023-04-24T15:02:44;10.15;;;2.10;;
24713;SDS011;12820;51.580;5.010;2023-04-24T15:07:46;7.18;;;1.67;;
24713;SDS011;12820;51.580;5.010;2023-04-24T15:12:48;8.80;;;1.67;;
24713;SDS011;12820;51.580;5.010;2023-04-24T15:17:51;7.75;;;1.60;;
24713;SDS011;12820;51.580;5.010;2023-04-24T15:22:53;7.57;;;1.80;;
24713;SDS011;12820;51.580;5.010;2023-04-24T15:27:55;9.63;;;2.30;;
24713;SDS011;12820;51.580;5.010;2023-04-24T15:32:57;9.43;;;2.13;;
24713;SDS011;12820;51.580;5.010;2023-04-24T15:38:00;9.00;;;2.08;;
24713;SDS011;12820;51.580;5.010;2023-04-24T15:43:02;4.18;;;1.23;;
24713;SDS011;12820;51.580;5.010;2023-04-24T15:48:05;6.22;;;1.73;;
24713;SDS011;12820;51.580;5.010;2023-04-24T15:53:07;9.35;;;2.38;;
24713;SDS011;12820;51.580;5.010;2023-04-24T15:58:09;10.18;;;2.30;;
24713;SDS011;12820;51.580;5.010;2023-04-24T16:03:12;10.02;;;2.40;;
24713;SDS011;12820;51.580;5.010;2023-04-24T16:08:14;11.45;;;2.40;;
24713;SDS011;12820;51.580;5.010;2023-04-24T16:13:17;13.18;;;2.75;;
24713;SDS011;12820;51.580;5.010;2023-04-24T16:18:19;7.85;;;2.25;;
24713;SDS011;12820;51.580;5.010;2023-04-24T16:23:22;12.98;;;2.70;;
24713;SDS011;12820;51.580;5.010;2023-04-24T16:28:24;12.07;;;2.33;;
24713;SDS011;12820;51.580;5.010;2023-04-24T16:33:28;10.40;;;2.28;;
24713;SDS011;12820;51.580;5.010;2023-04-24T16:38:32;12.18;;;2.63;;
24713;SDS011;12820;51.580;5.010;2023-04-24T16:43:34;12.07;;;2.47;;
24713;SDS011;12820;51.580;5.010;2023-04-24T16:48:36;10.55;;;2.85;;
24713;SDS011;12820;51.580;5.010;2023-04-24T16:53:38;6.13;;;1.92;;
24713;SDS011;12820;51.580;5.010;2023-04-24T16:58:40;13.32;;;2.60;;
24713;SDS011;12820;51.580;5.010;2023-04-24T17:03:42;10.48;;;2.70;;
24713;SDS011;12820;51.580;5.010;2023-04-24T17:08:45;10.55;;;2.97;;
24713;SDS011;12820;51.580;5.010;2023-04-24T17:13:47;13.05;;;3.17;;
24713;SDS011;12820;51.580;5.010;2023-04-24T17:18:49;11.93;;;2.80;;
24713;SDS011;12820;51.580;5.010;2023-04-24T17:23:52;9.52;;;2.80;;
24713;SDS011;12820;51.580;5.010;2023-04-24T17:28:54;12.73;;;3.92;;
24713;SDS011;12820;51.580;5.010;2023-04-24T17:33:56;12.20;;;3.90;;
24713;SDS011;12820;51.580;5.010;2023-04-24T17:39:00;18.00;;;4.03;;
24713;SDS011;12820;51.580;5.010;2023-04-24T17:44:02;13.07;;;3.73;;
24713;SDS011;12820;51.580;5.010;2023-04-24T17:49:04;17.23;;;3.33;;
24713;SDS011;12820;51.580;5.010;2023-04-24T17:54:06;17.13;;;4.15;;
24713;SDS011;12820;51.580;5.010;2023-04-24T17:59:09;14.82;;;3.53;;
24713;SDS011;12820;51.580;5.010;2023-04-24T18:04:11;14.02;;;3.50;;
24713;SDS011;12820;51.580;5.010;2023-04-24T18:09:13;15.20;;;4.47;;
24713;SDS011;12820;51.580;5.010;2023-04-24T18:14:19;13.80;;;4.70;;
24713;SDS011;12820;51.580;5.010;2023-04-24T18:19:21;17.92;;;4.00;;
24713;SDS011;12820;51.580;5.010;2023-04-24T18:24:23;18.95;;;4.75;;
24713;SDS011;12820;51.580;5.010;2023-04-24T18:29:26;12.65;;;4.30;;
24713;SDS011;12820;51.580;5.010;2023-04-24T18:34:28;15.95;;;4.53;;
24713;SDS011;12820;51.580;5.010;2023-04-24T18:39:31;18.05;;;4.70;;
24713;SDS011;12820;51.580;5.010;2023-04-24T18:44:34;19.15;;;4.72;;
24713;SDS011;12820;51.580;5.010;2023-04-24T18:49:36;13.20;;;4.45;;
24713;SDS011;12820;51.580;5.010;2023-04-24T18:54:38;17.48;;;4.43;;
24713;SDS011;12820;51.580;5.010;2023-04-24T18:59:41;16.45;;;4.22;;
24713;SDS011;12820;51.580;5.010;2023-04-24T19:04:43;15.10;;;4.70;;
24713;SDS011;12820;51.580;5.010;2023-04-24T19:09:46;16.30;;;4.60;;
24713;SDS011;12820;51.580;5.010;2023-04-24T19:14:48;25.92;;;5.20;;
24713;SDS011;12820;51.580;5.010;2023-04-24T19:19:50;15.60;;;4.63;;
24713;SDS011;12820;51.580;5.010;2023-04-24T19:24:53;18.65;;;4.68;;
24713;SDS011;12820;51.580;5.010;2023-04-24T19:29:55;16.50;;;4.28;;
24713;SDS011;12820;51.580;5.010;2023-04-24T19:34:57;15.60;;;4.40;;
24713;SDS011;12820;51.580;5.010;2023-04-24T19:40:00;15.88;;;4.40;;
24713;SDS011;12820;51.580;5.010;2023-04-24T19:45:02;14.80;;;4.05;;
24713;SDS011;12820;51.580;5.010;2023-04-24T19:50:05;15.13;;;4.30;;
24713;SDS011;12820;51.580;5.010;2023-04-24T19:55:08;20.95;;;4.65;;
24713;SDS011;12820;51.580;5.010;2023-04-24T20:00:10;17.67;;;4.93;;
24713;SDS011;12820;51.580;5.010;2023-04-24T20:05:13;22.45;;;4.88;;
24713;SDS011;12820;51.580;5.010;2023-04-24T20:10:15;14.30;;;4.30;;
24713;SDS011;12820;51.580;5.010;2023-04-24T20:15:18;16.77;;;4.13;;
24713;SDS011;12820;51.580;5.010;2023-04-24T20:20:20;19.98;;;4.40;;
24713;SDS011;12820;51.580;5.010;2023-04-24T20:25:22;16.85;;;4.10;;
24713;SDS011;12820;51.580;5.010;2023-04-24T20:30:25;18.65;;;4.75;;
24713;SDS011;12820;51.580;5.010;2023-04-24T20:35:27;17.08;;;4.57;;
24713;SDS011;12820;51.580;5.010;2023-04-24T20:40:29;15.88;;;4.35;;
24713;SDS011;12820;51.580;5.010;2023-04-24T20:45:32;23.13;;;4.60;;
24713;SDS011;12820;51.580;5.010;2023-04-24T20:50:35;16.40;;;4.63;;
24713;SDS011;12820;51.580;5.010;2023-04-24T20:55:42;16.55;;;4.05;;
24713;SDS011;12820;51.580;5.010;2023-04-24T21:00:44;19.55;;;4.93;;
24713;SDS011;12820;51.580;5.010;2023-04-24T21:05:47;16.45;;;4.00;;
24713;SDS011;12820;51.580;5.010;2023-04-24T21:10:50;21.52;;;4.93;;
24713;SDS011;12820;51.580;5.010;2023-04-24T21:15:52;14.70;;;3.72;;
24713;SDS011;12820;51.580;5.010;2023-04-24T21:20:54;16.02;;;4.20;;
24713;SDS011;12820;51.580;5.010;2023-04-24T21:25:57;20.27;;;4.35;;
24713;SDS011;12820;51.580;5.010;2023-04-24T21:30:59;19.40;;;5.07;;
24713;SDS011;12820;51.580;5.010;2023-04-24T21:36:02;19.75;;;4.90;;
24713;SDS011;12820;51.580;5.010;2023-04-24T21:41:04;21.63;;;4.70;;
24713;SDS011;12820;51.580;5.010;2023-04-24T21:46:06;21.75;;;5.07;;
24713;SDS011;12820;51.580;5.010;2023-04-24T21:51:08;22.10;;;4.57;;
24713;SDS011;12820;51.580;5.010;2023-04-24T21:56:10;18.80;;;4.80;;
24713;SDS011;12820;51.580;5.010;2023-04-24T22:01:12;20.65;;;5.03;;
24713;SDS011;12820;51.580;5.010;2023-04-24T22:06:16;19.48;;;4.53;;
24713;SDS011;12820;51.580;5.010;2023-04-24T22:11:18;18.63;;;4.75;;
24713;SDS011;12820;51.580;5.010;2023-04-24T22:16:28;16.10;;;4.93;;
24713;SDS011;12820;51.580;5.010;2023-04-24T22:21:32;24.63;;;5.43;;
24713;SDS011;12820;51.580;5.010;2023-04-24T22:26:34;23.90;;;5.28;;
24713;SDS011;12820;51.580;5.010;2023-04-24T22:31:36;14.52;;;5.20;;
24713;SDS011;12820;51.580;5.010;2023-04-24T22:36:38;17.27;;;4.80;;
24713;SDS011;12820;51.580;5.010;2023-04-24T22:41:41;29.15;;;11.95;;
24713;SDS011;12820;51.580;5.010;2023-04-24T22:46:43;29.95;;;12.80;;
24713;SDS011;12820;51.580;5.010;2023-04-24T22:51:46;22.52;;;5.50;;
24713;SDS011;12820;51.580;5.010;2023-04-24T22:56:48;21.42;;;5.40;;
24713;SDS011;12820;51.580;5.010;2023-04-24T23:01:50;21.50;;;6.22;;
24713;SDS011;12820;51.580;5.010;2023-04-24T23:06:53;17.35;;;5.75;;
24713;SDS011;12820;51.580;5.010;2023-04-24T23:11:55;14.18;;;5.07;;
24713;SDS011;12820;51.580;5.010;2023-04-24T23:16:58;14.48;;;4.68;;
24713;SDS011;12820;51.580;5.010;2023-04-24T23:22:01;15.77;;;4.75;;
24713;SDS011;12820;51.580;5.010;2023-04-24T23:27:03;22.30;;;5.63;;
24713;SDS011;12820;51.580;5.010;2023-04-24T23:32:05;16.52;;;5.45;;
24713;SDS011;12820;51.580;5.010;2023-04-24T23:37:07;17.52;;;5.18;;
24713;SDS011;12820;51.580;5.010;2023-04-24T23:42:09;20.80;;;5.82;;
24713;SDS011;12820;51.580;5.010;2023-04-24T23:47:11;22.27;;;5.85;;
24713;SDS011;12820;51.580;5.010;2023-04-24T23:52:13;18.90;;;5.47;;
24713;SDS011;12820;51.580;5.010;2023-04-24T23:57:16;15.63;;;5.72;;
